createdAt,value
2018-12-10T00:01:46.065Z,2.00
2018-12-10T00:04:18.374Z,1.80
2018-12-10T00:06:50.771Z,1.97
2018-12-10T00:09:21.377Z,1.60
2018-12-10T00:11:52.185Z,1.50
2018-12-10T00:14:23.121Z,1.37
2018-12-10T00:16:54.414Z,1.43
2018-12-10T00:19:24.973Z,1.60
2018-12-10T00:21:55.550Z,1.10
2018-12-10T00:24:26.111Z,1.00
2018-12-10T00:26:56.701Z,1.20
2018-12-10T00:29:27.780Z,1.40
2018-12-10T00:31:58.394Z,1.10
2018-12-10T00:34:29.953Z,1.37
2018-12-10T00:37:00.884Z,1.23
2018-12-10T00:39:31.529Z,2.20
2018-12-10T00:42:02.358Z,1.27
2018-12-10T00:44:32.929Z,1.13
2018-12-10T00:47:04.078Z,1.17
2018-12-10T00:49:34.649Z,1.40
2018-12-10T00:52:05.511Z,1.20
2018-12-10T00:54:36.061Z,1.00
2018-12-10T00:57:07.269Z,1.30
2018-12-10T00:59:37.877Z,1.50
2018-12-10T01:02:08.974Z,1.57
2018-12-10T01:04:39.522Z,1.40
2018-12-10T01:07:10.108Z,1.30
2018-12-10T01:09:40.653Z,1.03
2018-12-10T01:12:12.185Z,2.03
2018-12-10T01:17:12.275Z,1.90
2018-12-10T01:19:42.954Z,1.40
2018-12-10T01:22:13.813Z,1.22
2018-12-10T01:24:44.488Z,1.90
2018-12-10T01:27:15.338Z,2.07
2018-12-10T01:29:45.992Z,1.93
2018-12-10T01:32:16.774Z,1.60
2018-12-10T01:34:47.806Z,1.50
2018-12-10T01:37:18.473Z,1.50
2018-12-10T01:39:49.114Z,1.93
2018-12-10T01:42:19.673Z,1.90
2018-12-10T01:44:50.294Z,1.30
2018-12-10T01:47:20.858Z,1.90
2018-12-10T01:49:51.593Z,1.20
2018-12-10T01:52:22.674Z,1.23
2018-12-10T01:54:53.265Z,1.33
2018-12-10T01:57:24.021Z,1.50
2018-12-10T01:59:54.646Z,0.90
2018-12-10T02:02:25.291Z,1.93
2018-12-10T02:04:56.141Z,1.67
2018-12-10T02:07:28.034Z,1.60
2018-12-10T02:09:58.917Z,1.30
2018-12-10T02:12:30.229Z,1.80
2018-12-10T02:15:01.227Z,1.40
2018-12-10T02:17:32.765Z,1.60
2018-12-10T02:20:03.361Z,1.90
2018-12-10T02:22:33.913Z,1.57
2018-12-10T02:25:04.961Z,1.83
2018-12-10T02:27:35.582Z,2.13
2018-12-10T02:30:06.632Z,2.30
2018-12-10T02:32:37.188Z,2.60
2018-12-10T02:35:07.778Z,3.60
2018-12-10T02:37:38.658Z,3.00
2018-12-10T02:40:10.111Z,3.60
2018-12-10T02:42:41.121Z,3.65
2018-12-10T02:45:12.411Z,2.90
2018-12-10T02:47:42.981Z,3.90
2018-12-10T02:50:14.373Z,3.60
2018-12-10T02:52:45.205Z,4.25
2018-12-10T02:55:15.794Z,3.40
2018-12-10T02:57:46.549Z,4.03
2018-12-10T03:00:17.158Z,3.40
2018-12-10T03:02:47.807Z,3.37
2018-12-10T03:05:18.361Z,2.80
2018-12-10T03:07:48.978Z,2.93
2018-12-10T03:10:19.539Z,1.93
2018-12-10T03:12:50.135Z,2.20
2018-12-10T03:15:20.738Z,2.40
2018-12-10T03:17:51.590Z,2.22
2018-12-10T03:20:22.424Z,1.80
2018-12-10T03:22:52.998Z,2.13
2018-12-10T03:25:23.827Z,2.40
2018-12-10T03:27:54.418Z,2.67
2018-12-10T03:30:25.058Z,2.40
2018-12-10T03:32:56.135Z,3.02
2018-12-10T03:35:26.805Z,3.47
2018-12-10T03:37:57.650Z,3.30
2018-12-10T03:40:29.024Z,3.80
2018-12-10T03:42:59.881Z,3.65
2018-12-10T03:45:30.741Z,3.70
2018-12-10T03:48:01.297Z,3.27
2018-12-10T03:50:32.155Z,3.17
2018-12-10T03:53:02.792Z,3.10
2018-12-10T03:55:33.654Z,3.75
2018-12-10T03:58:04.702Z,3.17
2018-12-10T04:00:35.598Z,3.40
2018-12-10T04:03:07.553Z,3.60
2018-12-10T04:05:38.369Z,3.25
2018-12-10T04:08:09.183Z,3.20
2018-12-10T04:10:40.319Z,3.27
2018-12-10T04:13:11.828Z,2.67
2018-12-10T04:15:43.125Z,3.63
2018-12-10T04:18:14.202Z,3.13
2018-12-10T04:20:44.846Z,2.70
2018-12-10T04:23:15.698Z,3.70
2018-12-10T04:25:48.237Z,4.05
2018-12-10T04:28:19.264Z,3.00
2018-12-10T04:30:50.443Z,3.17
2018-12-10T04:33:21.281Z,3.35
2018-12-10T04:35:52.123Z,3.58
2018-12-10T04:38:22.726Z,3.57
2018-12-10T04:40:54.046Z,3.15
2018-12-10T04:43:24.708Z,2.80
2018-12-10T04:45:55.554Z,3.40
2018-12-10T04:48:26.161Z,3.27
2018-12-10T04:50:56.772Z,3.00
2018-12-10T04:53:27.702Z,3.10
2018-12-10T04:55:58.811Z,3.25
2018-12-10T04:58:29.423Z,2.80
2018-12-10T05:01:00.002Z,3.37
2018-12-10T05:03:30.669Z,3.40
2018-12-10T05:06:01.620Z,3.17
2018-12-10T05:08:32.413Z,3.13
2018-12-10T05:11:03.202Z,3.20
2018-12-10T05:13:33.789Z,3.00
2018-12-10T05:16:04.381Z,2.70
2018-12-10T05:18:34.926Z,3.03
2018-12-10T05:21:05.824Z,3.43
2018-12-10T05:23:36.378Z,2.83
2018-12-10T05:26:06.958Z,3.37
2018-12-10T05:28:37.786Z,3.17
2018-12-10T05:31:09.166Z,3.05
2018-12-10T05:33:40.089Z,2.95
2018-12-10T05:36:10.930Z,3.10
2018-12-10T05:38:41.961Z,2.77
2018-12-10T05:41:12.546Z,2.90
2018-12-10T05:43:43.150Z,2.60
2018-12-10T05:46:14.249Z,2.67
2018-12-10T05:48:44.977Z,2.97
2018-12-10T05:51:15.554Z,2.80
2018-12-10T05:53:46.126Z,2.60
2018-12-10T05:56:16.796Z,3.20
2018-12-10T05:58:47.534Z,3.50
2018-12-10T06:01:18.141Z,2.60
2018-12-10T06:03:48.805Z,2.53
2018-12-10T06:06:19.383Z,2.50
2018-12-10T06:08:49.954Z,2.77
2018-12-10T06:11:20.554Z,2.80
2018-12-10T06:13:51.484Z,2.27
2018-12-10T06:16:22.030Z,3.03
2018-12-10T06:18:52.610Z,2.53
2018-12-10T06:21:23.260Z,2.47
2018-12-10T06:23:53.926Z,2.20
2018-12-10T06:26:24.666Z,2.00
2018-12-10T06:28:55.246Z,2.40
2018-12-10T06:31:25.836Z,2.10
2018-12-10T06:33:56.980Z,2.30
2018-12-10T06:36:27.534Z,2.10
2018-12-10T06:38:58.375Z,1.65
2018-12-10T06:41:28.976Z,2.27
2018-12-10T06:43:59.593Z,3.03
2018-12-10T06:46:30.218Z,2.20
2018-12-10T06:49:00.816Z,1.93
2018-12-10T06:51:31.401Z,1.77
2018-12-10T06:56:50.636Z,1.80
2018-12-10T06:59:21.208Z,1.60
2018-12-10T07:01:51.826Z,1.30
2018-12-10T07:04:22.554Z,1.70
2018-12-10T07:06:53.162Z,1.50
2018-12-10T07:09:23.734Z,1.67
2018-12-10T07:11:54.309Z,2.03
2018-12-10T07:14:24.897Z,1.80
2018-12-10T07:16:56.098Z,3.00
2018-12-10T07:19:26.652Z,1.80
2018-12-10T07:21:57.280Z,2.20
2018-12-10T07:24:27.889Z,1.90
2018-12-10T07:26:59.687Z,1.80
2018-12-10T07:29:30.274Z,2.00
2018-12-10T07:32:00.867Z,2.27
2018-12-10T07:34:31.407Z,2.40
2018-12-10T07:37:02.446Z,2.83
2018-12-10T07:39:33.000Z,2.17
2018-12-10T07:42:04.117Z,2.17
2018-12-10T07:44:34.793Z,2.53
2018-12-10T07:47:05.834Z,2.27
2018-12-10T07:49:36.677Z,3.45
2018-12-10T07:52:07.314Z,2.83
2018-12-10T07:54:37.900Z,3.37
2018-12-10T07:57:08.550Z,3.47
2018-12-10T07:59:39.143Z,3.10
2018-12-10T08:02:09.718Z,3.67
2018-12-10T08:04:40.352Z,4.20
2018-12-10T08:07:11.333Z,3.80
2018-12-10T08:09:42.205Z,3.40
2018-12-10T08:12:13.169Z,3.70
2018-12-10T08:14:44.841Z,3.77
2018-12-10T08:17:15.699Z,3.72
2018-12-10T08:19:46.300Z,3.87
2018-12-10T08:22:16.860Z,3.83
2018-12-10T08:24:47.446Z,3.63
2018-12-10T08:27:17.998Z,3.97
2018-12-10T08:29:48.721Z,4.20
2018-12-10T08:32:19.343Z,3.83
2018-12-10T08:34:50.290Z,4.03
2018-12-10T08:37:21.222Z,4.33
2018-12-10T08:39:51.863Z,4.53
2018-12-10T08:42:22.424Z,4.20
2018-12-10T08:44:54.456Z,4.27
2018-12-10T08:47:25.050Z,5.33
2018-12-10T08:49:55.631Z,4.10
2018-12-10T08:52:26.230Z,4.90
2018-12-10T08:54:56.867Z,4.30
2018-12-10T08:57:27.498Z,4.43
2018-12-10T08:59:58.126Z,4.60
2018-12-10T09:02:29.192Z,4.23
2018-12-10T09:04:59.990Z,4.40
2018-12-10T09:07:30.634Z,4.20
2018-12-10T09:10:01.200Z,4.43
2018-12-10T09:12:32.513Z,4.37
2018-12-10T09:15:03.160Z,4.80
2018-12-10T09:17:34.023Z,4.73
2018-12-10T09:20:05.858Z,4.83
2018-12-10T09:22:36.448Z,4.30
2018-12-10T09:25:08.239Z,5.20
2018-12-10T09:27:38.863Z,5.07
2018-12-10T09:30:14.290Z,4.33
2018-12-10T09:32:44.870Z,4.53
2018-12-10T09:35:16.035Z,4.50
2018-12-10T09:37:46.675Z,4.30
2018-12-10T09:40:17.706Z,4.20
2018-12-10T09:42:49.953Z,4.70
2018-12-10T09:45:20.974Z,4.60
2018-12-10T09:47:51.537Z,4.60
2018-12-10T09:50:22.638Z,4.30
2018-12-10T09:52:53.183Z,3.90
2018-12-10T09:55:24.173Z,3.90
2018-12-10T09:57:54.771Z,4.20
2018-12-10T10:00:25.778Z,4.37
2018-12-10T10:02:56.353Z,3.60
2018-12-10T10:05:26.933Z,3.30
2018-12-10T10:07:57.500Z,3.60
2018-12-10T10:10:28.069Z,3.13
2018-12-10T10:12:58.705Z,3.23
2018-12-10T10:15:30.122Z,3.00
2018-12-10T10:18:00.691Z,2.93
2018-12-10T10:20:31.331Z,2.80
2018-12-10T10:23:01.883Z,3.30
2018-12-10T10:25:32.507Z,2.80
2018-12-10T10:28:03.082Z,3.03
2018-12-10T10:30:33.748Z,3.20
2018-12-10T10:33:04.754Z,3.87
2018-12-10T10:35:35.325Z,3.40
2018-12-10T10:38:05.937Z,3.27
2018-12-10T10:40:36.528Z,3.40
2018-12-10T10:43:07.102Z,3.20
2018-12-10T10:45:39.062Z,3.02
2018-12-10T10:48:09.719Z,3.63
2018-12-10T10:50:40.330Z,3.20
2018-12-10T10:53:10.922Z,3.17
2018-12-10T10:55:41.509Z,3.33
2018-12-10T10:58:12.120Z,2.83
2018-12-10T11:00:47.979Z,3.00
2018-12-10T11:03:23.937Z,3.40
2018-12-10T11:05:54.539Z,3.60
2018-12-10T11:08:25.388Z,3.47
2018-12-10T11:10:56.537Z,3.93
2018-12-10T11:13:27.138Z,3.60
2018-12-10T11:15:58.157Z,3.83
2018-12-10T11:18:29.204Z,3.23
2018-12-10T11:20:59.798Z,3.13
2018-12-10T11:23:30.392Z,2.90
2018-12-10T11:26:00.961Z,3.30
2018-12-10T11:28:31.583Z,3.40
2018-12-10T11:31:02.494Z,3.50
2018-12-10T11:33:33.134Z,3.47
2018-12-10T11:36:04.134Z,3.80
2018-12-10T11:38:34.797Z,3.23
2018-12-10T11:41:05.487Z,3.63
2018-12-10T11:43:36.070Z,3.60
2018-12-10T11:46:06.656Z,3.30
2018-12-10T11:48:37.232Z,3.43
2018-12-10T11:51:07.825Z,4.20
2018-12-10T11:53:38.454Z,5.00
2018-12-10T11:56:09.909Z,4.80
2018-12-10T11:58:40.545Z,4.00
2018-12-10T12:01:11.131Z,3.70
2018-12-10T12:03:41.707Z,4.30
2018-12-10T12:06:14.022Z,4.47
2018-12-10T12:08:44.618Z,4.23
2018-12-10T12:11:15.305Z,4.10
2018-12-10T12:13:45.879Z,3.90
2018-12-10T12:16:17.031Z,3.97
2018-12-10T12:18:47.630Z,3.77
2018-12-10T12:21:19.287Z,4.23
2018-12-10T12:23:49.958Z,3.90
2018-12-10T12:26:20.573Z,3.60
2018-12-10T12:28:51.171Z,3.77
2018-12-10T12:31:21.865Z,4.07
2018-12-10T12:33:52.463Z,3.50
2018-12-10T12:36:23.078Z,4.20
2018-12-10T12:38:53.688Z,3.60
2018-12-10T12:41:24.250Z,3.80
2018-12-10T12:43:54.842Z,3.50
2018-12-10T12:46:26.365Z,3.20
2018-12-10T12:48:56.950Z,3.23
2018-12-10T12:51:27.974Z,3.80
2018-12-10T12:53:58.585Z,3.43
2018-12-10T12:56:29.581Z,3.50
2018-12-10T12:59:00.199Z,3.60
2018-12-10T13:01:30.822Z,3.27
2018-12-10T13:04:02.145Z,4.07
2018-12-10T13:06:32.775Z,3.37
2018-12-10T13:09:03.690Z,3.43
2018-12-10T13:11:37.133Z,3.47
2018-12-10T13:14:08.185Z,3.23
2018-12-10T13:16:38.779Z,4.10
2018-12-10T13:19:09.335Z,8.33
2018-12-10T13:21:39.970Z,4.03
2018-12-10T13:24:10.539Z,9.70
2018-12-10T13:26:42.599Z,6.50
2018-12-10T13:29:13.470Z,5.90
2018-12-10T13:31:44.570Z,6.13
2018-12-10T13:34:15.161Z,5.67
2018-12-10T13:36:45.766Z,3.90
2018-12-10T13:39:16.317Z,3.07
2018-12-10T13:41:46.979Z,4.03
2018-12-10T13:44:17.597Z,2.50
2018-12-10T13:46:48.468Z,3.07
2018-12-10T13:49:19.297Z,2.57
2018-12-10T13:51:49.882Z,3.97
2018-12-10T13:54:20.929Z,2.57
2018-12-10T13:56:51.518Z,2.70
2018-12-10T13:59:22.114Z,2.63
2018-12-10T14:01:52.697Z,2.70
2018-12-10T14:07:18.427Z,2.70
2018-12-10T14:09:49.280Z,2.43
2018-12-10T14:12:19.948Z,3.10
2018-12-10T14:14:50.639Z,2.83
2018-12-10T14:17:22.218Z,2.90
2018-12-10T14:19:53.043Z,2.90
2018-12-10T14:22:23.804Z,2.50
2018-12-10T14:24:55.331Z,2.30
2018-12-10T14:27:26.370Z,3.30
2018-12-10T14:29:57.089Z,2.70
2018-12-10T14:32:27.701Z,2.47
2018-12-10T14:34:58.313Z,2.37
2018-12-10T14:37:28.990Z,2.50
2018-12-10T14:39:59.616Z,2.03
2018-12-10T14:42:30.182Z,2.27
2018-12-10T14:45:01.741Z,2.10
2018-12-10T14:47:32.335Z,2.50
2018-12-10T14:50:02.928Z,2.10
2018-12-10T14:52:34.012Z,2.10
2018-12-10T14:55:06.090Z,2.40
2018-12-10T14:57:37.004Z,2.20
2018-12-10T15:00:10.044Z,2.03
2018-12-10T15:02:40.739Z,2.37
2018-12-10T15:05:13.358Z,2.30
2018-12-10T15:07:43.938Z,2.17
2018-12-10T15:10:15.165Z,2.30
2018-12-10T15:12:45.802Z,2.13
2018-12-10T15:15:16.366Z,2.90
2018-12-10T15:17:46.968Z,2.77
2018-12-10T15:20:18.074Z,3.20
2018-12-10T15:22:48.749Z,2.47
2018-12-10T15:25:20.113Z,2.57
2018-12-10T15:27:50.850Z,3.67
2018-12-10T15:30:21.494Z,3.13
2018-12-10T15:32:52.399Z,3.30
2018-12-10T15:35:24.293Z,6.57
2018-12-10T15:37:54.977Z,10.70
2018-12-10T15:40:25.635Z,2.70
2018-12-10T15:42:56.242Z,3.53
2018-12-10T15:45:27.815Z,3.07
2018-12-10T15:47:58.497Z,3.73
2018-12-10T15:50:29.098Z,3.13
2018-12-10T15:52:59.671Z,3.10
2018-12-10T15:55:30.345Z,2.80
2018-12-10T15:58:00.918Z,3.00
2018-12-10T16:00:31.637Z,3.07
2018-12-10T16:03:02.525Z,2.83
2018-12-10T16:05:33.912Z,2.50
2018-12-10T16:08:04.526Z,2.77
2018-12-10T16:10:35.130Z,3.43
2018-12-10T16:13:05.760Z,3.10
2018-12-10T16:15:37.169Z,3.27
2018-12-10T16:18:08.252Z,3.97
2018-12-10T16:20:38.847Z,3.07
2018-12-10T16:23:10.138Z,3.93
2018-12-10T16:25:41.282Z,4.17
2018-12-10T16:28:13.202Z,3.80
2018-12-10T16:30:44.430Z,2.93
2018-12-10T16:33:15.581Z,5.07
2018-12-10T16:35:47.282Z,5.70
2018-12-10T16:38:17.921Z,4.50
2018-12-10T16:40:48.526Z,4.20
2018-12-10T16:43:19.166Z,4.13
2018-12-10T16:45:50.215Z,6.80
2018-12-10T16:48:21.366Z,6.53
2018-12-10T16:50:51.972Z,4.00
2018-12-10T16:53:22.710Z,5.83
2018-12-10T16:55:53.749Z,5.60
2018-12-10T16:58:24.606Z,3.80
2018-12-10T17:00:55.287Z,3.90
2018-12-10T17:03:25.983Z,3.67
2018-12-10T17:05:56.553Z,4.57
2018-12-10T17:08:27.343Z,4.67
2018-12-10T17:10:57.923Z,4.13
2018-12-10T17:13:28.528Z,3.23
2018-12-10T17:15:59.321Z,3.40
2018-12-10T17:18:30.177Z,4.00
2018-12-10T17:21:00.790Z,4.43
2018-12-10T17:23:31.429Z,5.63
2018-12-10T17:26:02.133Z,6.10
2018-12-10T17:28:32.749Z,5.13
2018-12-10T17:31:03.341Z,6.43
2018-12-10T17:33:33.951Z,4.53
2018-12-10T17:36:04.578Z,5.20
2018-12-10T17:38:35.181Z,3.70
2018-12-10T17:41:06.824Z,5.63
2018-12-10T17:43:37.405Z,4.73
2018-12-10T17:46:08.001Z,4.63
2018-12-10T17:48:38.715Z,5.80
2018-12-10T17:51:09.314Z,4.50
2018-12-10T17:53:40.026Z,5.07
2018-12-10T17:56:10.949Z,5.07
2018-12-10T17:58:42.029Z,5.07
2018-12-10T18:01:12.931Z,4.05
2018-12-10T18:03:43.654Z,4.50
2018-12-10T18:06:14.299Z,4.10
2018-12-10T18:08:45.147Z,3.70
2018-12-10T18:11:15.777Z,4.00
2018-12-10T18:13:46.707Z,3.90
2018-12-10T18:16:17.281Z,4.50
2018-12-10T18:18:48.153Z,3.58
2018-12-10T18:21:18.809Z,3.43
2018-12-10T18:23:49.421Z,3.60
2018-12-10T18:26:20.355Z,3.50
2018-12-10T18:28:51.057Z,3.77
2018-12-10T18:31:21.715Z,4.63
2018-12-10T18:33:52.963Z,3.53
2018-12-10T18:36:23.897Z,3.70
2018-12-10T18:38:54.857Z,4.17
2018-12-10T18:41:26.205Z,3.98
2018-12-10T18:43:57.374Z,4.78
2018-12-10T18:46:28.642Z,4.47
2018-12-10T18:48:59.546Z,3.83
2018-12-10T18:51:30.461Z,3.80
2018-12-10T18:54:01.507Z,4.00
2018-12-10T18:56:33.327Z,3.40
2018-12-10T18:59:10.838Z,3.65
2018-12-10T19:01:41.761Z,3.67
2018-12-10T19:04:12.728Z,4.30
2018-12-10T19:06:43.663Z,4.80
2018-12-10T19:09:15.281Z,4.10
2018-12-10T19:11:46.148Z,5.03
2018-12-10T19:14:17.007Z,5.25
2018-12-10T19:16:47.950Z,4.70
2018-12-10T19:19:18.885Z,4.40
2018-12-10T19:21:49.899Z,4.80
2018-12-10T19:24:20.876Z,4.83
2018-12-10T19:26:51.890Z,5.20
2018-12-10T19:29:22.808Z,4.55
2018-12-10T19:31:53.773Z,4.30
2018-12-10T19:34:24.698Z,4.25
2018-12-10T19:36:55.772Z,3.80
2018-12-10T19:39:27.298Z,4.40
2018-12-10T19:41:58.338Z,4.90
2018-12-10T19:44:29.499Z,5.40
2018-12-10T19:47:00.413Z,4.70
2018-12-10T19:49:31.701Z,5.00
2018-12-10T19:52:02.720Z,4.22
2018-12-10T19:54:33.935Z,4.72
2018-12-10T19:57:05.336Z,4.47
2018-12-10T19:59:36.472Z,4.05
2018-12-10T20:02:08.737Z,3.92
2018-12-10T20:04:39.747Z,4.00
2018-12-10T20:07:10.889Z,4.35
2018-12-10T20:09:41.812Z,4.55
2018-12-10T20:12:13.182Z,4.05
2018-12-10T20:14:44.214Z,3.27
2018-12-10T20:17:15.220Z,4.17
2018-12-10T20:19:46.485Z,3.60
2018-12-10T20:22:17.772Z,3.60
2018-12-10T20:24:48.670Z,3.17
2018-12-10T20:27:19.663Z,3.33
2018-12-10T20:29:51.587Z,3.25
2018-12-10T20:32:22.743Z,3.15
2018-12-10T20:34:53.995Z,3.33
2018-12-10T20:37:25.122Z,3.10
2018-12-10T20:39:56.333Z,3.55
2018-12-10T20:42:27.724Z,3.40
2018-12-10T20:44:58.637Z,3.17
2018-12-10T20:47:30.015Z,4.05
2018-12-10T20:50:00.926Z,3.05
2018-12-10T20:52:32.109Z,3.30
2018-12-10T20:55:04.068Z,3.40
2018-12-10T20:57:41.364Z,3.20
2018-12-10T21:00:10.019Z,3.15
2018-12-10T21:02:40.948Z,3.40
2018-12-10T21:05:11.880Z,3.52
2018-12-10T21:07:42.829Z,2.70
2018-12-10T21:10:13.749Z,3.37
2018-12-10T21:12:44.758Z,3.27
2018-12-10T21:15:15.702Z,3.90
2018-12-10T21:17:46.888Z,3.22
2018-12-10T21:20:17.507Z,2.67
2018-12-10T21:22:48.963Z,3.02
2018-12-10T21:25:19.947Z,2.72
2018-12-10T21:27:51.334Z,2.98
2018-12-10T21:30:22.290Z,3.20
2018-12-10T21:32:53.738Z,2.40
2018-12-10T21:35:24.597Z,2.50
2018-12-10T21:37:55.534Z,3.00
2018-12-10T21:40:26.483Z,2.55
2018-12-10T21:42:57.598Z,3.80
2018-12-10T21:45:28.517Z,3.10
2018-12-10T21:47:59.487Z,2.70
2018-12-10T21:50:30.346Z,3.25
2018-12-10T21:53:01.062Z,3.10
2018-12-10T21:55:31.975Z,3.15
2018-12-10T21:58:02.568Z,2.90
2018-12-10T22:00:33.702Z,2.77
2018-12-10T22:03:05.481Z,2.70
2018-12-10T22:05:36.374Z,2.70
2018-12-10T22:08:07.490Z,3.00
2018-12-10T22:10:38.801Z,3.30
2018-12-10T22:13:10.289Z,3.05
2018-12-10T22:15:41.209Z,2.83
2018-12-10T22:18:12.265Z,2.55
2018-12-10T22:20:43.170Z,2.95
2018-12-10T22:23:14.369Z,3.10
2018-12-10T22:25:45.268Z,3.33
2018-12-10T22:28:16.094Z,3.03
2018-12-10T22:30:47.047Z,2.45
2018-12-10T22:33:17.987Z,3.00
2018-12-10T22:35:48.922Z,2.75
2018-12-10T22:38:20.578Z,2.70
2018-12-10T22:40:51.428Z,2.77
2018-12-10T22:43:22.554Z,3.00
2018-12-10T22:45:53.486Z,3.05
2018-12-10T22:48:24.416Z,3.00
2018-12-10T22:50:55.027Z,2.97
2018-12-10T22:53:25.989Z,3.02
2018-12-10T22:55:56.593Z,2.60
2018-12-10T22:58:27.254Z,2.90
2018-12-10T23:00:57.998Z,2.80
2018-12-10T23:03:28.608Z,2.50
2018-12-10T23:05:59.911Z,2.83
2018-12-10T23:08:30.477Z,2.23
2018-12-10T23:11:01.526Z,2.50
2018-12-10T23:13:33.895Z,3.07
2018-12-10T23:16:05.023Z,2.57
2018-12-10T23:18:36.274Z,2.33
2018-12-10T23:21:08.594Z,2.83
2018-12-10T23:23:39.717Z,2.90
2018-12-10T23:26:10.713Z,2.75
2018-12-10T23:28:41.357Z,2.83
2018-12-10T23:31:12.118Z,2.63
2018-12-10T23:33:42.951Z,2.83
2018-12-10T23:36:14.158Z,2.40
2018-12-10T23:38:44.734Z,3.70
2018-12-10T23:41:17.214Z,2.50
2018-12-10T23:43:49.724Z,2.52
2018-12-10T23:46:20.602Z,3.15
2018-12-10T23:48:52.021Z,2.50
2018-12-10T23:51:23.704Z,2.60
2018-12-10T23:53:54.627Z,2.40
2018-12-10T23:56:25.278Z,2.40
2018-12-10T23:58:56.305Z,2.85
